Union, Nebraska
Current Conditions -  °F | °C
As of 11:55 AM on Friday 28 Nov 2014 (Local Time) from KPMV Reporting Station
Clear Clear  
Wind Chill: 39°   Ceiling: Unl
Heat Index: 45°   Visibility: 10mi
Dew Point: 29°   Wind: 12mph
Humidity: 54%   Direction: 160°SSE
Pressure: 29.79"   Gusts: NA
Location:  40.81°N, 95.92°W
Report Text: KPMV 281755Z AUTO 16010KT 10SM CLR 07/M02 A2979 RMK AO2 T00701017 10070 21030
Loading
Personal Weather Stations






























Interactive Weather Map New forecast layout! Learn more

10-Day Weather Forecast

Advertisements
Track Severe Weather on mobile